createdAt,value
2022-12-16T00:02:13.189Z,9.95
2022-12-16T00:04:41.168Z,10.82
2022-12-16T00:07:10.462Z,11.35
2022-12-16T00:09:38.432Z,11.25
2022-12-16T00:12:06.850Z,9.40
2022-12-16T00:14:34.781Z,11.35
2022-12-16T00:17:02.802Z,12.57
2022-12-16T00:19:31.505Z,11.77
2022-12-16T00:21:59.486Z,12.77
2022-12-16T00:24:31.251Z,12.77
2022-12-16T00:26:59.211Z,11.93
2022-12-16T00:29:27.239Z,10.18
2022-12-16T00:31:55.230Z,11.43
2022-12-16T00:34:25.505Z,11.45
2022-12-16T00:36:53.474Z,12.77
2022-12-16T00:39:21.446Z,10.70
2022-12-16T00:41:50.860Z,11.57
2022-12-16T00:44:19.984Z,13.15
2022-12-16T00:46:48.228Z,10.32
2022-12-16T00:49:16.249Z,11.70
2022-12-16T00:51:44.332Z,11.63
2022-12-16T00:54:12.278Z,10.57
2022-12-16T00:56:40.250Z,12.27
2022-12-16T00:59:09.528Z,13.02
2022-12-16T01:01:37.528Z,12.85
2022-12-16T01:04:05.899Z,13.68
2022-12-16T01:06:33.845Z,14.27
2022-12-16T01:09:01.802Z,11.63
2022-12-16T01:11:29.740Z,13.48
2022-12-16T01:14:00.099Z,11.90
2022-12-16T01:16:29.490Z,12.75
2022-12-16T01:18:57.514Z,13.20
2022-12-16T01:21:25.828Z,11.93
2022-12-16T01:23:55.012Z,12.52
2022-12-16T01:26:23.429Z,13.13
2022-12-16T01:28:51.510Z,11.00
2022-12-16T01:31:22.097Z,12.43
2022-12-16T01:33:52.070Z,13.60
2022-12-16T01:36:20.061Z,11.40
2022-12-16T01:38:48.146Z,11.05
2022-12-16T01:41:17.930Z,11.52
2022-12-16T01:43:47.218Z,12.45
2022-12-16T01:46:21.375Z,12.20
2022-12-16T01:48:54.692Z,10.75
2022-12-16T01:51:27.562Z,13.57
2022-12-16T01:53:59.527Z,12.60
2022-12-16T01:56:31.150Z,11.05
2022-12-16T01:59:00.428Z,11.77
2022-12-16T02:01:28.949Z,10.55
2022-12-16T02:04:02.338Z,11.18
2022-12-16T02:06:31.091Z,10.15
2022-12-16T02:09:04.385Z,10.25
2022-12-16T02:11:46.984Z,10.60
2022-12-16T02:14:39.885Z,7.82
2022-12-16T02:17:14.130Z,11.82
2022-12-16T02:20:21.430Z,10.80
2022-12-16T02:23:12.314Z,10.50
2022-12-16T02:26:11.272Z,8.38
2022-12-16T02:28:57.080Z,10.38
2022-12-16T02:31:34.959Z,9.80
2022-12-16T02:34:14.785Z,10.60
2022-12-16T02:36:55.954Z,9.32
2022-12-16T02:39:29.488Z,10.50
2022-12-16T02:42:03.947Z,10.65
2022-12-16T02:44:46.850Z,12.50
2022-12-16T02:47:16.125Z,10.52
2022-12-16T02:49:52.482Z,9.52
2022-12-16T02:52:24.152Z,10.55
2022-12-16T02:54:56.642Z,10.43
2022-12-16T02:57:54.344Z,10.52
2022-12-16T03:00:25.713Z,9.50
2022-12-16T03:03:00.501Z,8.98
2022-12-16T03:05:32.891Z,9.43
2022-12-16T03:08:04.304Z,8.75
2022-12-16T03:10:45.330Z,8.80
2022-12-16T03:13:15.537Z,7.85
2022-12-16T03:15:45.877Z,9.75
2022-12-16T03:18:16.528Z,9.32
2022-12-16T03:20:48.268Z,8.88
2022-12-16T03:23:22.759Z,8.70
2022-12-16T03:25:55.541Z,8.45
2022-12-16T03:28:32.263Z,9.43
2022-12-16T03:31:05.716Z,9.45
2022-12-16T03:33:44.939Z,8.75
2022-12-16T03:36:19.287Z,8.02
2022-12-16T03:38:49.403Z,5.47
2022-12-16T03:41:19.365Z,7.30
2022-12-16T03:43:48.251Z,6.05
2022-12-16T03:46:17.649Z,6.88
2022-12-16T03:48:55.273Z,5.78
2022-12-16T03:51:23.213Z,8.13
2022-12-16T03:53:51.296Z,7.70
2022-12-16T03:56:19.266Z,6.88
2022-12-16T03:58:47.222Z,8.63
2022-12-16T04:01:15.562Z,7.68
2022-12-16T04:03:43.628Z,8.18
2022-12-16T04:06:12.935Z,7.65
2022-12-16T04:08:40.846Z,7.85
2022-12-16T04:11:27.166Z,8.38
2022-12-16T04:14:12.606Z,7.00
2022-12-16T04:16:58.343Z,9.48
2022-12-16T04:19:48.564Z,6.70
2022-12-16T04:22:38.247Z,7.55
2022-12-16T04:25:09.778Z,8.20
2022-12-16T04:27:37.931Z,7.68
2022-12-16T04:30:22.146Z,7.43
2022-12-16T04:33:10.342Z,7.07
2022-12-16T04:35:55.513Z,6.82
2022-12-16T04:38:43.712Z,9.48
2022-12-16T04:41:29.329Z,7.55
2022-12-16T04:44:14.882Z,6.70
2022-12-16T04:47:00.665Z,6.28
2022-12-16T04:49:46.118Z,6.82
2022-12-16T04:52:31.756Z,6.75
2022-12-16T04:55:18.805Z,7.80
2022-12-16T04:58:06.810Z,6.30
2022-12-16T05:00:52.287Z,6.13
2022-12-16T05:03:37.761Z,6.43
2022-12-16T05:06:23.667Z,6.10
2022-12-16T05:09:09.107Z,6.93
2022-12-16T05:11:55.803Z,5.97
2022-12-16T05:14:41.192Z,6.63
2022-12-16T05:17:26.679Z,6.72
2022-12-16T05:20:12.246Z,5.18
2022-12-16T05:22:57.773Z,5.47
2022-12-16T05:25:43.014Z,5.90
2022-12-16T05:28:30.199Z,7.75
2022-12-16T05:31:15.768Z,6.45
2022-12-16T05:34:01.567Z,7.57
2022-12-16T05:36:47.505Z,5.70
2022-12-16T05:39:32.872Z,6.80
2022-12-16T05:42:18.315Z,7.38
2022-12-16T05:45:05.076Z,6.15
2022-12-16T05:47:50.324Z,5.18
2022-12-16T05:50:35.978Z,6.18
2022-12-16T05:53:27.571Z,5.53
2022-12-16T05:56:13.531Z,5.63
2022-12-16T05:58:59.049Z,6.07
2022-12-16T06:01:46.564Z,5.70
2022-12-16T06:04:32.507Z,5.60
2022-12-16T06:07:18.127Z,5.70
2022-12-16T06:10:03.901Z,12.23
2022-12-16T06:12:49.280Z,10.40
2022-12-16T06:15:35.268Z,9.55
2022-12-16T06:18:21.939Z,6.53
2022-12-16T06:21:07.216Z,6.10
2022-12-16T06:23:52.722Z,6.20
2022-12-16T06:26:38.109Z,5.53
2022-12-16T06:29:23.593Z,6.68
2022-12-16T06:32:08.885Z,5.10
2022-12-16T06:34:55.674Z,4.20
2022-12-16T06:37:41.024Z,5.93
2022-12-16T06:40:27.936Z,4.55
2022-12-16T06:43:13.414Z,5.82
2022-12-16T06:45:59.338Z,5.32
2022-12-16T06:48:44.819Z,4.32
2022-12-16T06:51:31.629Z,5.72
2022-12-16T06:54:17.005Z,5.10
2022-12-16T06:57:01.734Z,4.28
2022-12-16T06:59:47.341Z,4.68
2022-12-16T07:02:49.910Z,5.80
2022-12-16T07:05:35.582Z,5.55
2022-12-16T07:08:22.574Z,3.78
2022-12-16T07:11:16.553Z,4.80
2022-12-16T07:14:02.962Z,5.40
2022-12-16T07:16:48.871Z,10.00
2022-12-16T07:19:35.065Z,6.60
2022-12-16T07:22:20.408Z,5.97
2022-12-16T07:25:07.100Z,5.07
2022-12-16T07:27:52.394Z,5.47
2022-12-16T07:30:37.733Z,5.22
2022-12-16T07:33:23.048Z,5.18
2022-12-16T07:36:08.394Z,2.97
2022-12-16T07:38:54.162Z,5.15
2022-12-16T07:41:40.724Z,4.25
2022-12-16T07:44:26.065Z,2.80
2022-12-16T07:47:11.566Z,3.60
2022-12-16T07:49:56.885Z,4.70
2022-12-16T07:52:42.237Z,3.85
2022-12-16T07:55:27.985Z,3.63
2022-12-16T07:58:29.080Z,3.83
2022-12-16T08:01:14.739Z,5.45
2022-12-16T08:04:00.465Z,6.25
2022-12-16T08:06:48.692Z,6.40
2022-12-16T08:09:36.401Z,4.70
2022-12-16T08:12:21.864Z,3.30
2022-12-16T08:15:08.462Z,5.88
2022-12-16T08:17:54.468Z,5.50
2022-12-16T08:20:40.803Z,7.75
2022-12-16T08:23:28.211Z,5.22
2022-12-16T08:26:15.914Z,4.97
2022-12-16T08:29:20.191Z,5.15
2022-12-16T08:32:08.475Z,5.28
2022-12-16T08:34:53.973Z,5.25
2022-12-16T08:37:39.350Z,6.43
2022-12-16T08:40:35.251Z,4.60
2022-12-16T08:43:21.299Z,4.82
2022-12-16T08:46:06.855Z,4.22
2022-12-16T08:48:53.880Z,5.60
2022-12-16T08:51:41.614Z,5.53
2022-12-16T08:54:27.508Z,5.20
2022-12-16T08:57:13.019Z,5.05
2022-12-16T08:59:58.465Z,5.35
2022-12-16T09:02:44.053Z,6.30
2022-12-16T09:05:31.272Z,5.03
2022-12-16T09:08:18.538Z,7.28
2022-12-16T09:11:04.645Z,6.28
2022-12-16T09:13:49.861Z,4.80
2022-12-16T09:16:35.222Z,6.50
2022-12-16T09:19:20.806Z,5.07
2022-12-16T09:22:07.970Z,4.82
2022-12-16T09:24:54.127Z,4.28
2022-12-16T09:27:41.463Z,6.03
2022-12-16T09:30:30.324Z,5.32
2022-12-16T09:33:15.839Z,4.38
2022-12-16T09:36:01.231Z,4.90
2022-12-16T09:38:49.236Z,4.40
2022-12-16T09:41:47.271Z,5.15
2022-12-16T09:44:41.880Z,5.97
2022-12-16T09:47:37.723Z,5.05
2022-12-16T09:50:24.079Z,6.25
2022-12-16T09:53:17.900Z,4.72
2022-12-16T09:56:05.088Z,5.90
2022-12-16T09:58:56.569Z,5.95
2022-12-16T10:01:44.834Z,5.47
2022-12-16T10:04:30.629Z,5.05
2022-12-16T10:07:19.827Z,5.45
2022-12-16T10:10:16.761Z,4.60
2022-12-16T10:13:11.232Z,3.80
2022-12-16T10:16:04.065Z,4.38
2022-12-16T10:19:09.832Z,4.72
2022-12-16T10:22:00.745Z,4.60
2022-12-16T10:24:56.687Z,4.25
2022-12-16T10:27:49.243Z,4.90
2022-12-16T10:30:36.092Z,5.38
2022-12-16T10:33:22.072Z,6.13
2022-12-16T10:36:11.086Z,5.38
2022-12-16T10:39:00.995Z,3.80
2022-12-16T10:41:52.854Z,5.63
2022-12-16T10:44:45.062Z,5.85
2022-12-16T10:47:31.775Z,5.57
2022-12-16T10:50:32.684Z,5.47
2022-12-16T10:53:20.718Z,4.93
2022-12-16T10:56:16.384Z,4.63
2022-12-16T10:59:05.487Z,7.07
2022-12-16T11:01:50.904Z,5.80
2022-12-16T11:04:55.661Z,6.30
2022-12-16T11:07:48.237Z,7.15
2022-12-16T11:10:45.566Z,7.30
2022-12-16T11:13:36.938Z,6.22
2022-12-16T11:16:32.507Z,5.55
2022-12-16T11:19:18.983Z,6.43
2022-12-16T11:22:05.976Z,7.38
2022-12-16T11:24:52.089Z,7.30
2022-12-16T11:27:42.401Z,6.07
2022-12-16T11:30:38.407Z,6.57
2022-12-16T11:33:31.566Z,7.30
2022-12-16T11:36:25.400Z,7.53
2022-12-16T11:39:12.642Z,6.55
2022-12-16T11:42:00.358Z,7.15
2022-12-16T11:44:52.049Z,10.77
2022-12-16T11:47:44.671Z,8.85
2022-12-16T11:50:34.348Z,10.38
2022-12-16T11:53:20.564Z,9.20
2022-12-16T11:56:16.043Z,8.35
2022-12-16T11:59:05.096Z,8.35
2022-12-16T12:01:57.896Z,6.32
2022-12-16T12:04:45.696Z,8.23
2022-12-16T12:07:45.661Z,9.30
2022-12-16T12:10:52.542Z,8.23
2022-12-16T12:14:13.196Z,7.95
2022-12-16T12:17:11.020Z,6.57
2022-12-16T12:20:08.785Z,8.15
2022-12-16T12:22:55.983Z,8.07
2022-12-16T12:25:48.021Z,8.43
2022-12-16T12:28:46.922Z,7.63
2022-12-16T12:31:50.497Z,8.00
2022-12-16T12:34:47.521Z,7.55
2022-12-16T12:37:39.895Z,7.93
2022-12-16T12:40:40.397Z,8.43
2022-12-16T12:43:42.455Z,8.40
2022-12-16T12:46:36.890Z,8.65
2022-12-16T12:49:36.717Z,7.97
2022-12-16T12:52:29.551Z,11.23
2022-12-16T12:55:22.654Z,10.25
2022-12-16T12:58:10.288Z,8.73
2022-12-16T13:01:01.739Z,9.85
2022-12-16T13:03:52.577Z,9.80
2022-12-16T13:06:39.385Z,8.95
2022-12-16T13:09:48.512Z,9.90
2022-12-16T13:12:52.796Z,9.70
2022-12-16T13:15:51.896Z,9.82
2022-12-16T13:18:42.976Z,9.93
2022-12-16T13:22:07.127Z,8.98
2022-12-16T13:25:03.565Z,8.45
2022-12-16T13:28:05.459Z,10.52
2022-12-16T13:30:52.674Z,11.13
2022-12-16T13:33:48.769Z,10.05
2022-12-16T13:36:37.118Z,9.63
2022-12-16T13:39:45.638Z,9.25
2022-12-16T13:43:06.360Z,10.13
2022-12-16T13:45:56.790Z,9.90
2022-12-16T13:48:49.827Z,7.78
2022-12-16T13:52:24.298Z,10.38
2022-12-16T13:55:25.148Z,10.00
2022-12-16T13:58:19.974Z,13.00
2022-12-16T14:01:15.612Z,10.82
2022-12-16T14:04:09.012Z,8.85
2022-12-16T14:06:59.629Z,10.82
2022-12-16T14:09:53.507Z,10.68
2022-12-16T14:13:06.652Z,11.30
2022-12-16T14:16:00.315Z,18.70
2022-12-16T14:18:56.960Z,10.48
2022-12-16T14:21:47.586Z,13.20
2022-12-16T14:24:42.167Z,12.10
2022-12-16T14:27:34.775Z,12.00
2022-12-16T14:30:32.895Z,12.35
2022-12-16T14:33:18.305Z,11.80
2022-12-16T14:36:10.679Z,11.13
2022-12-16T14:38:56.077Z,12.55
2022-12-16T14:41:43.464Z,12.82
2022-12-16T14:44:43.848Z,11.35
2022-12-16T14:47:35.803Z,11.00
2022-12-16T14:50:22.720Z,10.80
2022-12-16T14:53:08.038Z,11.52
2022-12-16T14:55:53.997Z,10.38
2022-12-16T14:58:41.927Z,10.23
2022-12-16T15:01:33.641Z,10.80
2022-12-16T15:04:25.206Z,10.25
2022-12-16T15:07:13.294Z,9.98
2022-12-16T15:10:02.689Z,8.60
2022-12-16T15:13:10.915Z,10.43
2022-12-16T15:16:07.649Z,8.30
2022-12-16T15:18:57.017Z,10.13
2022-12-16T15:21:44.497Z,11.05
2022-12-16T15:24:35.875Z,10.32
2022-12-16T15:27:42.517Z,9.23
2022-12-16T15:30:51.281Z,17.83
2022-12-16T15:33:38.825Z,14.93
2022-12-16T15:36:25.738Z,11.32
2022-12-16T15:39:12.342Z,9.82
2022-12-16T15:41:57.807Z,12.35
2022-12-16T15:44:46.225Z,14.05
2022-12-16T15:47:40.671Z,12.57
2022-12-16T15:50:31.702Z,12.23
2022-12-16T15:53:44.398Z,12.07
2022-12-16T15:56:41.985Z,13.85
2022-12-16T15:59:45.178Z,14.73
2022-12-16T16:02:36.446Z,18.45
2022-12-16T16:05:30.375Z,13.35
2022-12-16T16:08:15.782Z,14.00
2022-12-16T16:11:02.195Z,12.18
2022-12-16T16:13:48.980Z,14.07
2022-12-16T16:16:34.778Z,13.43
2022-12-16T16:19:20.220Z,14.20
2022-12-16T16:22:05.639Z,13.45
2022-12-16T16:24:50.925Z,12.75
2022-12-16T16:27:38.296Z,11.00
2022-12-16T16:30:29.366Z,13.35
2022-12-16T16:33:14.919Z,14.02
2022-12-16T16:36:00.255Z,13.57
2022-12-16T16:38:45.638Z,12.93
2022-12-16T16:41:33.946Z,13.48
2022-12-16T16:44:20.271Z,7.80
2022-12-16T16:47:07.250Z,10.30
2022-12-16T16:50:03.264Z,12.95
2022-12-16T16:52:49.726Z,12.70
2022-12-16T16:55:37.685Z,14.48
2022-12-16T16:58:28.581Z,14.88
2022-12-16T17:01:14.240Z,12.32
2022-12-16T17:04:04.887Z,14.88
2022-12-16T17:06:56.779Z,12.43
2022-12-16T17:09:42.175Z,14.35
2022-12-16T17:12:36.964Z,13.43
2022-12-16T17:15:33.843Z,13.18
2022-12-16T17:18:19.420Z,13.57
2022-12-16T17:21:06.484Z,16.92
2022-12-16T17:23:53.789Z,16.45
2022-12-16T17:26:39.722Z,14.27
2022-12-16T17:29:25.042Z,14.20
2022-12-16T17:32:10.532Z,15.15
2022-12-16T17:35:04.874Z,15.00
2022-12-16T17:37:59.108Z,15.23
2022-12-16T17:40:46.251Z,15.63
2022-12-16T17:43:32.551Z,16.65
2022-12-16T17:46:20.087Z,18.60
2022-12-16T17:49:10.413Z,16.10
2022-12-16T17:51:55.818Z,18.80
2022-12-16T17:54:42.623Z,15.75
2022-12-16T17:57:28.434Z,14.40
2022-12-16T18:00:14.703Z,15.85
2022-12-16T18:03:00.941Z,17.35
2022-12-16T18:05:55.861Z,10.27
2022-12-16T18:08:41.164Z,15.95
2022-12-16T18:11:28.218Z,15.38
2022-12-16T18:14:15.168Z,12.77
2022-12-16T18:17:00.593Z,15.32
2022-12-16T18:19:45.788Z,13.85
2022-12-16T18:22:34.137Z,15.70
2022-12-16T18:25:19.713Z,14.00
2022-12-16T18:28:06.494Z,14.98
2022-12-16T18:30:51.943Z,12.43
2022-12-16T18:33:37.517Z,12.93
2022-12-16T18:36:24.867Z,14.27
2022-12-16T18:39:06.760Z,13.73
2022-12-16T18:41:52.395Z,14.57
2022-12-16T18:45:00.857Z,12.02
2022-12-16T18:47:58.874Z,15.20
2022-12-16T18:50:44.885Z,12.50
2022-12-16T18:53:30.913Z,12.70
2022-12-16T18:56:21.451Z,14.27
2022-12-16T18:59:18.268Z,10.80
2022-12-16T19:02:05.792Z,12.15
2022-12-16T19:04:51.698Z,13.02
2022-12-16T19:07:37.247Z,12.02
2022-12-16T19:10:23.630Z,10.27
2022-12-16T19:13:16.728Z,11.95
2022-12-16T19:16:10.567Z,11.73
2022-12-16T19:18:57.366Z,10.63
2022-12-16T19:21:45.713Z,13.25
2022-12-16T19:24:36.506Z,8.77
2022-12-16T19:27:22.212Z,6.85
2022-12-16T19:30:07.614Z,8.88
2022-12-16T19:32:49.516Z,13.10
2022-12-16T19:35:36.720Z,12.48
2022-12-16T19:38:22.538Z,13.27
2022-12-16T19:41:09.844Z,14.30
2022-12-16T19:44:01.744Z,12.98
2022-12-16T19:46:51.593Z,11.93
2022-12-16T19:49:43.788Z,13.50
2022-12-16T19:52:31.320Z,9.73
2022-12-16T19:55:17.782Z,11.93
2022-12-16T19:58:06.191Z,9.32
2022-12-16T20:00:51.644Z,8.20
2022-12-16T20:03:38.475Z,13.18
2022-12-16T20:06:26.786Z,11.93
2022-12-16T20:09:17.425Z,11.05
2022-12-16T20:12:03.441Z,11.40
2022-12-16T20:14:49.326Z,12.95
2022-12-16T20:17:34.706Z,12.32
2022-12-16T20:20:20.111Z,11.45
2022-12-16T20:23:05.585Z,11.40
2022-12-16T20:26:03.661Z,11.80
2022-12-16T20:28:49.654Z,10.80
2022-12-16T20:31:35.374Z,9.38
2022-12-16T20:34:21.744Z,12.00
2022-12-16T20:37:07.223Z,10.38
2022-12-16T20:39:56.940Z,10.77
2022-12-16T20:42:46.608Z,10.25
2022-12-16T20:45:32.453Z,11.38
2022-12-16T20:48:18.321Z,11.13
2022-12-16T20:51:11.738Z,11.23
2022-12-16T20:53:58.402Z,10.63
2022-12-16T20:56:44.486Z,11.25
2022-12-16T20:59:31.243Z,12.35
2022-12-16T21:02:29.042Z,10.15
2022-12-16T21:05:25.401Z,10.93
2022-12-16T21:08:20.472Z,12.23
2022-12-16T21:11:14.569Z,13.23
2022-12-16T21:13:59.932Z,11.18
2022-12-16T21:16:46.865Z,14.65
2022-12-16T21:19:33.744Z,12.02
2022-12-16T21:22:19.733Z,7.53
2022-12-16T21:25:05.047Z,13.38
2022-12-16T21:27:51.039Z,12.65
2022-12-16T21:30:36.589Z,10.95
2022-12-16T21:33:23.337Z,11.68
2022-12-16T21:36:12.404Z,11.63
2022-12-16T21:38:57.964Z,12.02
2022-12-16T21:41:39.875Z,12.50
2022-12-16T21:44:25.753Z,9.65
2022-12-16T21:47:11.126Z,11.95
2022-12-16T21:49:57.900Z,11.32
2022-12-16T21:52:43.300Z,11.40
2022-12-16T21:55:28.589Z,12.73
2022-12-16T21:58:14.480Z,11.45
2022-12-16T22:01:00.896Z,11.95
2022-12-16T22:03:52.704Z,12.45
2022-12-16T22:06:44.224Z,11.68
2022-12-16T22:09:32.543Z,12.13
2022-12-16T22:12:17.949Z,11.63
2022-12-16T22:15:04.159Z,11.98
2022-12-16T22:17:57.539Z,11.95
2022-12-16T22:20:44.268Z,13.02
2022-12-16T22:23:31.416Z,13.70
2022-12-16T22:26:18.287Z,13.38
2022-12-16T22:29:05.121Z,12.77
2022-12-16T22:31:50.530Z,14.38
2022-12-16T22:34:36.337Z,14.93
2022-12-16T22:37:21.642Z,17.13
2022-12-16T22:40:08.335Z,13.18
2022-12-16T22:42:53.759Z,12.57
2022-12-16T22:45:42.196Z,15.25
2022-12-16T22:48:30.280Z,13.25
2022-12-16T22:51:15.547Z,14.00
2022-12-16T22:54:01.052Z,13.23
2022-12-16T22:56:47.843Z,14.23
2022-12-16T22:59:33.358Z,11.55
2022-12-16T23:02:18.632Z,14.15
2022-12-16T23:05:04.132Z,13.07
2022-12-16T23:07:49.610Z,15.90
2022-12-16T23:10:35.398Z,10.48
2022-12-16T23:13:22.136Z,12.10
2022-12-16T23:16:07.539Z,13.98
2022-12-16T23:18:56.632Z,12.57
2022-12-16T23:21:42.473Z,12.80
2022-12-16T23:24:28.990Z,12.20
2022-12-16T23:27:14.855Z,11.90
2022-12-16T23:30:01.523Z,11.30
2022-12-16T23:32:55.245Z,12.65
2022-12-16T23:35:42.221Z,11.70
2022-12-16T23:38:43.099Z,14.60
2022-12-16T23:41:28.481Z,14.02
2022-12-16T23:44:13.860Z,12.35
2022-12-16T23:47:00.846Z,11.18
2022-12-16T23:49:46.498Z,7.70
2022-12-16T23:52:31.992Z,10.07
2022-12-16T23:55:17.324Z,13.48
2022-12-16T23:58:02.785Z,12.38
